Hauptseite
METAR-TAF:

METAR-TAF

Flughäfen :

Flugplatz Melun-Villaroche

Melun, Frankreich

Breite: 48-37N, Länge: 002-41E, Höhe: 95 m

Beobachtung

Neuester Wetterbericht von vor 28 Minuten, um 04:00 UTC
Wind 3 kt aus Ost, variierte zwischen Nordost und Ost/Südost
Temperatur 5°C
Luftfeuchtigkeit 87%
Luftdruck 1009 hPa
Sichtweite 10 km oder mehr
Leicht bewölkt in der Höhe von 2200 ft
Geschlossene Wolkendecke in der Höhe von 3400 ft

METAR: LFPM 170400Z AUTO 09003KT 050V110 9999 FEW022 OVC034 05/03 Q1009

Zeit: 05:28 (04:28 UTC)


TAF: fehlend

Wetterbeobachtungen und Prognosen von mehr als 4000 Flughäfen (METAR und TAF Bericht).

Die verfügbaren Stationen werden durch gelbe und rote Markierungen auf der Karte dargestellt.

Führen Sie die Maus auf sie, um den Namen der Station zu sehen.

Darauf klicken, um die Beobachtung von Wetterbeobachtungen und Prognosen zu sehen.

Um die Karte zu ändern : klicken Sie auf den grünen Tasten mit einem schwarzen Kreuz Zum Vergrößern, auf den grünen Button mit einem Gedankenstrich zu verkleinern, oder auf die grünen Pfeile für benachbarte Karten.


METAR-TAF: